createdAt,value
2023-08-24T00:00:57.308Z,100696.59
2023-08-24T00:03:28.476Z,100701.44
2023-08-24T00:05:59.634Z,100699.75
2023-08-24T00:08:31.161Z,100691.38
2023-08-24T00:11:05.510Z,100693.75
2023-08-24T00:13:35.995Z,100685.94
2023-08-24T00:16:07.788Z,100691.38
2023-08-24T00:18:37.885Z,100692.41
2023-08-24T00:21:09.152Z,100679.41
2023-08-24T00:23:40.317Z,100660.50
2023-08-24T00:26:14.167Z,100667.47
2023-08-24T00:28:44.249Z,100656.59
2023-08-24T00:31:15.690Z,100648.09
2023-08-24T00:33:46.828Z,100660.50
2023-08-24T00:36:19.242Z,100659.78
2023-08-24T00:38:52.868Z,100656.25
2023-08-24T00:41:26.695Z,100661.19
2023-08-24T00:43:57.797Z,100666.88
2023-08-24T00:46:31.585Z,100665.22
2023-08-24T00:49:02.724Z,100661.19
2023-08-24T00:51:32.974Z,100655.78
2023-08-24T00:54:04.098Z,100657.16
2023-08-24T00:56:38.050Z,100655.31
2023-08-24T00:59:08.221Z,100642.03
2023-08-24T01:01:39.551Z,100658.84
2023-08-24T01:04:12.250Z,100644.03
2023-08-24T01:06:43.449Z,100640.81
2023-08-24T01:09:15.041Z,100645.53
2023-08-24T01:12:00.571Z,100639.63
2023-08-24T01:14:44.839Z,100650.53
2023-08-24T01:17:20.183Z,100648.63
2023-08-24T01:19:51.465Z,100649.31
2023-08-24T01:22:37.152Z,100643.63
2023-08-24T01:25:15.972Z,100647.16
2023-08-24T01:27:52.624Z,100650.59
2023-08-24T01:30:23.743Z,100649.25
2023-08-24T01:32:54.883Z,100644.44
2023-08-24T01:35:26.440Z,100644.06
2023-08-24T01:37:57.662Z,100631.09
2023-08-24T01:40:40.720Z,100616.81
2023-08-24T01:43:20.055Z,100626.50
2023-08-24T01:45:57.452Z,100624.38
2023-08-24T01:48:28.753Z,100624.59
2023-08-24T01:50:59.361Z,100614.41
2023-08-24T01:53:30.418Z,100627.31
2023-08-24T01:56:00.588Z,100629.66
2023-08-24T01:58:33.256Z,100621.03
2023-08-24T02:01:03.487Z,100605.66
2023-08-24T02:03:34.086Z,100622.81
2023-08-24T02:06:06.087Z,100619.28
2023-08-24T02:08:36.309Z,100616.09
2023-08-24T02:11:06.458Z,100619.75
2023-08-24T02:13:39.107Z,100620.91
2023-08-24T02:16:13.596Z,100605.25
2023-08-24T02:18:43.782Z,100602.75
2023-08-24T02:21:15.586Z,100588.94
2023-08-24T02:23:47.034Z,100599.31
2023-08-24T02:26:18.138Z,100602.97
2023-08-24T02:28:51.977Z,100597.63
2023-08-24T02:31:23.066Z,100594.19
2023-08-24T02:33:54.213Z,100596.88
2023-08-24T02:36:25.322Z,100598.09
2023-08-24T02:38:56.395Z,100603.28
2023-08-24T02:41:27.538Z,100608.31
2023-08-24T02:44:00.237Z,100614.47
2023-08-24T02:46:31.382Z,100612.09
2023-08-24T02:49:02.483Z,100604.66
2023-08-24T02:51:33.685Z,100601.69
2023-08-24T02:54:05.172Z,100583.59
2023-08-24T02:56:36.260Z,100586.81
2023-08-24T02:59:10.230Z,100590.50
2023-08-24T03:01:42.737Z,100595.44
2023-08-24T03:04:13.858Z,100594.50
2023-08-24T03:06:47.357Z,100595.31
2023-08-24T03:09:17.766Z,100594.50
2023-08-24T03:11:47.813Z,100594.84
2023-08-24T03:14:20.510Z,100593.06
2023-08-24T03:16:51.780Z,100592.72
2023-08-24T03:19:22.909Z,100594.34
2023-08-24T03:21:54.023Z,100596.03
2023-08-24T03:24:24.105Z,100604.19
2023-08-24T03:26:55.201Z,100600.31
2023-08-24T03:29:28.910Z,100607.75
2023-08-24T03:31:59.966Z,100589.94
2023-08-24T03:34:32.451Z,100583.44
2023-08-24T03:37:02.605Z,100594.44
2023-08-24T03:39:33.765Z,100588.66
2023-08-24T03:42:04.853Z,100582.53
2023-08-24T03:44:38.808Z,100589.41
2023-08-24T03:47:10.115Z,100589.88
2023-08-24T03:49:41.570Z,100594.16
2023-08-24T03:52:14.914Z,100589.13
2023-08-24T03:54:46.441Z,100584.78
2023-08-24T03:57:18.219Z,100582.59
2023-08-24T03:59:51.226Z,100603.63
2023-08-24T04:02:22.385Z,100609.81
2023-08-24T04:04:56.517Z,100596.47
2023-08-24T04:07:26.592Z,100605.78
2023-08-24T04:09:56.651Z,100611.44
2023-08-24T04:12:26.730Z,100618.44
2023-08-24T04:15:00.613Z,100616.56
2023-08-24T04:17:31.842Z,100615.16
2023-08-24T04:20:02.948Z,100595.88
2023-08-24T04:22:34.157Z,100603.00
2023-08-24T04:25:05.698Z,100602.66
2023-08-24T04:27:36.344Z,100583.97
2023-08-24T04:30:13.573Z,100584.59
2023-08-24T04:32:44.847Z,100577.06
2023-08-24T04:35:16.060Z,100570.66
2023-08-24T04:37:47.206Z,100560.03
2023-08-24T04:40:18.559Z,100568.41
2023-08-24T04:42:48.644Z,100575.72
2023-08-24T04:45:22.724Z,100571.72
2023-08-24T04:47:54.033Z,100586.00
2023-08-24T04:50:25.398Z,100586.16
2023-08-24T04:52:56.482Z,100576.66
2023-08-24T04:55:27.093Z,100577.44
2023-08-24T04:57:58.203Z,100569.28
2023-08-24T05:00:34.335Z,100571.41
2023-08-24T05:03:05.957Z,100574.31
2023-08-24T05:05:38.664Z,100554.03
2023-08-24T05:08:13.160Z,100546.47
2023-08-24T05:10:44.908Z,100554.50
2023-08-24T05:13:16.036Z,100555.81
2023-08-24T05:15:50.776Z,100536.44
2023-08-24T05:18:21.866Z,100523.69
2023-08-24T05:20:52.439Z,100530.78
2023-08-24T05:23:23.721Z,100530.22
2023-08-24T05:25:54.809Z,100526.34
2023-08-24T05:28:25.955Z,100521.72
2023-08-24T05:30:59.721Z,100510.47
2023-08-24T05:33:32.326Z,100507.03
2023-08-24T05:36:03.559Z,100508.09
2023-08-24T05:38:35.146Z,100500.28
2023-08-24T05:41:06.256Z,100490.63
2023-08-24T05:43:37.346Z,100474.97
2023-08-24T05:46:11.171Z,100485.31
2023-08-24T05:48:42.364Z,100476.22
2023-08-24T05:51:13.730Z,100467.78
2023-08-24T05:53:45.380Z,100455.38
2023-08-24T05:56:16.751Z,100449.97
2023-08-24T05:58:46.795Z,100446.75
2023-08-24T06:01:20.524Z,100443.22
2023-08-24T06:03:51.897Z,100445.84
2023-08-24T06:06:23.089Z,100440.31
2023-08-24T06:08:53.208Z,100441.13
2023-08-24T06:11:24.317Z,100438.34
2023-08-24T06:13:56.037Z,100441.16
2023-08-24T06:16:30.111Z,100437.13
2023-08-24T06:19:01.256Z,100438.31
2023-08-24T06:21:32.494Z,100441.38
2023-08-24T06:24:05.133Z,100447.03
2023-08-24T06:26:36.231Z,100433.53
2023-08-24T06:29:07.481Z,100435.19
2023-08-24T06:31:41.249Z,100434.53
2023-08-24T06:34:12.473Z,100429.47
2023-08-24T06:36:43.788Z,100438.53
2023-08-24T06:39:14.955Z,100431.94
2023-08-24T06:41:46.042Z,100427.31
2023-08-24T06:44:17.158Z,100424.94
2023-08-24T06:46:50.954Z,100437.19
2023-08-24T06:49:22.035Z,100436.28
2023-08-24T06:51:53.147Z,100434.69
2023-08-24T06:54:25.623Z,100431.31
2023-08-24T06:56:57.861Z,100426.84
2023-08-24T06:59:29.039Z,100422.25
2023-08-24T07:02:05.336Z,100418.06
2023-08-24T07:04:35.674Z,100424.19
2023-08-24T07:07:07.100Z,100428.66
2023-08-24T07:09:38.690Z,100426.25
2023-08-24T07:12:11.430Z,100424.03
2023-08-24T07:14:42.781Z,100424.34
2023-08-24T07:17:16.817Z,100394.16
2023-08-24T07:19:46.901Z,100418.72
2023-08-24T07:22:18.327Z,100414.16
2023-08-24T07:24:53.426Z,100413.41
2023-08-24T07:27:24.710Z,100417.09
2023-08-24T07:29:55.800Z,100415.44
2023-08-24T07:32:31.026Z,100406.88
2023-08-24T07:35:02.622Z,100408.19
2023-08-24T07:37:33.717Z,100414.91
2023-08-24T07:40:05.224Z,100417.81
2023-08-24T07:42:48.237Z,100408.50
2023-08-24T07:45:19.461Z,100408.50
2023-08-24T07:47:53.732Z,100410.19
2023-08-24T07:50:26.347Z,100410.66
2023-08-24T07:52:58.003Z,100400.19
2023-08-24T07:55:29.626Z,100404.38
2023-08-24T07:58:00.751Z,100396.31
2023-08-24T08:00:32.074Z,100393.19
2023-08-24T08:03:04.919Z,100390.50
2023-08-24T08:05:36.116Z,100385.34
2023-08-24T08:08:08.531Z,100385.91
2023-08-24T08:10:38.616Z,100377.41
2023-08-24T08:13:11.702Z,100379.53
2023-08-24T08:15:42.309Z,100378.50
2023-08-24T08:18:15.087Z,100373.72
2023-08-24T08:20:46.190Z,100375.81
2023-08-24T08:23:17.330Z,100386.94
2023-08-24T08:25:47.588Z,100393.13
2023-08-24T08:28:19.012Z,100400.59
2023-08-24T08:30:52.175Z,100390.56
2023-08-24T08:33:25.876Z,100390.66
2023-08-24T08:35:57.038Z,100393.50
2023-08-24T08:38:29.599Z,100393.34
2023-08-24T08:41:06.243Z,100385.19
2023-08-24T08:43:37.466Z,100370.28
2023-08-24T08:46:08.843Z,100360.22
2023-08-24T08:48:43.202Z,100360.31
2023-08-24T08:51:16.315Z,100360.75
2023-08-24T08:53:47.505Z,100356.28
2023-08-24T08:56:19.899Z,100351.41
2023-08-24T08:58:51.854Z,100347.75
2023-08-24T09:01:23.447Z,100350.69
2023-08-24T09:03:57.586Z,100338.41
2023-08-24T09:06:28.882Z,100350.38
2023-08-24T09:09:01.131Z,100352.00
2023-08-24T09:11:32.222Z,100343.00
2023-08-24T09:14:03.300Z,100348.34
2023-08-24T09:16:34.616Z,100347.13
2023-08-24T09:19:11.160Z,100334.06
2023-08-24T09:21:43.391Z,100330.78
2023-08-24T09:24:16.340Z,100323.81
2023-08-24T09:26:46.703Z,100309.47
2023-08-24T09:29:19.318Z,100299.59
2023-08-24T09:31:51.000Z,100289.75
2023-08-24T09:34:32.225Z,100280.69
2023-08-24T09:37:02.359Z,100277.31
2023-08-24T09:39:32.471Z,100278.00
2023-08-24T09:42:06.505Z,100267.84
2023-08-24T09:44:36.568Z,100262.34
2023-08-24T09:47:13.032Z,100237.06
2023-08-24T09:49:45.710Z,100239.84
2023-08-24T09:52:15.963Z,100225.31
2023-08-24T09:54:48.803Z,100229.03
2023-08-24T09:57:19.327Z,100227.56
2023-08-24T09:59:52.853Z,100188.75
2023-08-24T10:02:27.608Z,100222.34
2023-08-24T10:05:01.043Z,100230.53
2023-08-24T10:07:31.431Z,100226.25
2023-08-24T10:10:06.922Z,100220.41
2023-08-24T10:12:54.895Z,100216.34
2023-08-24T10:15:25.916Z,100240.06
2023-08-24T10:17:57.534Z,100256.78
2023-08-24T10:20:31.556Z,100268.56
2023-08-24T10:23:05.428Z,100274.34
2023-08-24T10:25:36.177Z,100277.84
2023-08-24T10:28:07.872Z,100281.66
2023-08-24T10:30:40.637Z,100278.81
2023-08-24T10:33:12.662Z,100281.69
2023-08-24T10:35:48.134Z,100283.97
2023-08-24T10:38:39.240Z,100277.50
2023-08-24T10:41:11.030Z,100282.53
2023-08-24T10:43:42.606Z,100282.16
2023-08-24T10:46:20.484Z,100281.69
2023-08-24T10:49:04.462Z,100273.34
2023-08-24T10:51:48.224Z,100267.59
2023-08-24T10:54:19.667Z,100262.25
2023-08-24T10:56:59.983Z,100257.13
2023-08-24T10:59:51.053Z,100256.13
2023-08-24T11:02:23.580Z,100256.63
2023-08-24T11:05:23.244Z,100248.38
2023-08-24T11:07:58.806Z,100242.84
2023-08-24T11:10:32.482Z,100246.63
2023-08-24T11:13:10.680Z,100243.66
2023-08-24T11:15:46.691Z,100240.22
2023-08-24T11:18:34.918Z,100248.75
2023-08-24T11:21:07.865Z,100245.09
2023-08-24T11:23:41.882Z,100243.56
2023-08-24T11:26:11.932Z,100244.78
2023-08-24T11:28:42.044Z,100236.31
2023-08-24T11:31:13.824Z,100234.25
2023-08-24T11:33:44.055Z,100225.75
2023-08-24T11:36:14.145Z,100221.19
2023-08-24T11:38:48.527Z,100210.31
2023-08-24T11:41:20.799Z,100194.78
2023-08-24T11:43:53.013Z,100186.53
2023-08-24T11:46:23.842Z,100193.09
2023-08-24T11:48:54.115Z,100186.25
2023-08-24T11:51:37.736Z,100190.75
2023-08-24T11:54:15.823Z,100185.50
2023-08-24T11:56:47.830Z,100185.63
2023-08-24T11:59:20.008Z,100187.00
2023-08-24T12:01:51.395Z,100182.34
2023-08-24T12:04:21.529Z,100181.47
2023-08-24T12:06:51.686Z,100186.44
2023-08-24T12:09:25.105Z,100191.13
2023-08-24T12:12:00.076Z,100196.41
2023-08-24T12:14:30.124Z,100204.81
2023-08-24T12:17:00.181Z,100198.13
2023-08-24T12:19:30.229Z,100204.16
2023-08-24T12:22:00.527Z,100207.72
2023-08-24T12:24:33.409Z,100204.75
2023-08-24T12:27:04.822Z,100203.22
2023-08-24T12:29:34.967Z,100198.25
2023-08-24T12:32:05.077Z,100191.97
2023-08-24T12:34:35.206Z,100182.34
2023-08-24T12:37:05.722Z,100183.06
2023-08-24T12:39:43.232Z,100169.13
2023-08-24T12:42:13.299Z,100170.72
2023-08-24T12:44:44.217Z,100166.13
2023-08-24T12:47:14.375Z,100154.94
2023-08-24T12:49:44.703Z,100139.78
2023-08-24T12:52:14.799Z,100141.38
2023-08-24T12:54:47.619Z,100135.00
2023-08-24T12:57:17.686Z,100133.28
2023-08-24T12:59:48.306Z,100126.59
2023-08-24T13:02:29.217Z,100120.38
2023-08-24T13:05:05.450Z,100115.03
2023-08-24T13:07:36.482Z,100106.75
2023-08-24T13:10:10.602Z,100126.31
2023-08-24T13:12:40.676Z,100118.31
2023-08-24T13:15:12.755Z,100110.44
2023-08-24T13:17:42.895Z,100099.69
2023-08-24T13:20:13.355Z,100095.81
2023-08-24T13:22:43.495Z,100090.97
2023-08-24T13:25:16.604Z,100081.28
2023-08-24T13:27:46.710Z,100071.09
2023-08-24T13:30:17.359Z,100059.34
2023-08-24T13:32:47.507Z,100052.47
2023-08-24T13:35:17.815Z,100043.53
2023-08-24T13:37:47.912Z,100031.16
2023-08-24T13:40:20.911Z,100035.13
2023-08-24T13:42:51.148Z,100041.59
2023-08-24T13:45:21.526Z,100039.41
2023-08-24T13:47:51.716Z,100056.16
2023-08-24T13:50:22.335Z,100069.16
2023-08-24T13:52:53.122Z,100076.78
2023-08-24T13:55:26.033Z,100079.59
2023-08-24T13:57:56.808Z,100089.06
2023-08-24T14:00:27.572Z,100085.47
2023-08-24T14:02:57.806Z,100088.78
2023-08-24T14:05:27.896Z,100084.31
2023-08-24T14:07:58.203Z,100093.88
2023-08-24T14:10:31.171Z,100103.78
2023-08-24T14:13:01.632Z,100093.53
2023-08-24T14:15:31.819Z,100066.41
2023-08-24T14:18:01.914Z,100052.56
2023-08-24T14:20:32.345Z,100049.66
2023-08-24T14:23:04.738Z,100050.50
2023-08-24T14:25:38.884Z,100077.16
2023-08-24T14:28:11.211Z,100080.84
2023-08-24T14:30:43.181Z,100070.19
2023-08-24T14:33:14.300Z,100082.94
2023-08-24T14:35:45.388Z,100078.41
2023-08-24T14:38:16.576Z,100073.06
2023-08-24T14:40:49.603Z,100040.41
2023-08-24T14:43:20.765Z,100067.75
2023-08-24T14:45:52.351Z,100065.69
2023-08-24T14:48:24.060Z,100051.31
2023-08-24T14:50:55.560Z,100062.84
2023-08-24T14:53:26.785Z,100053.03
2023-08-24T14:56:01.804Z,100064.09
2023-08-24T14:58:31.870Z,100074.84
2023-08-24T15:01:03.018Z,100071.19
2023-08-24T15:03:34.305Z,100066.28
2023-08-24T15:06:08.154Z,100067.13
2023-08-24T15:08:39.659Z,100069.59
2023-08-24T15:11:12.361Z,100071.25
2023-08-24T15:13:44.281Z,100078.69
2023-08-24T15:16:14.445Z,100077.53
2023-08-24T15:18:45.589Z,100084.53
2023-08-24T15:21:17.783Z,100085.44
2023-08-24T15:23:50.382Z,100092.91
2023-08-24T15:26:24.662Z,100097.06
2023-08-24T15:29:13.207Z,100084.06
2023-08-24T15:31:44.386Z,100109.88
2023-08-24T15:34:14.879Z,100113.59
2023-08-24T15:36:46.437Z,100102.56
2023-08-24T15:39:17.511Z,100096.44
2023-08-24T15:41:50.222Z,100087.88
2023-08-24T15:44:21.303Z,100084.22
2023-08-24T15:46:54.125Z,100083.41
2023-08-24T15:49:26.681Z,100082.16
2023-08-24T15:51:58.240Z,100072.72
2023-08-24T15:54:29.410Z,100073.97
2023-08-24T15:57:03.138Z,100080.09
2023-08-24T15:59:34.259Z,100087.81
2023-08-24T16:02:05.876Z,100085.38
2023-08-24T16:04:37.007Z,100097.19
2023-08-24T16:07:08.216Z,100103.31
2023-08-24T16:09:39.288Z,100104.13
2023-08-24T16:12:13.258Z,100098.38
2023-08-24T16:14:44.550Z,100099.09
2023-08-24T16:17:14.616Z,100090.78
2023-08-24T16:19:48.409Z,100090.69
2023-08-24T16:22:19.727Z,100080.78
2023-08-24T16:24:50.256Z,100075.66
2023-08-24T16:27:23.965Z,100058.44
2023-08-24T16:29:55.221Z,100067.38
2023-08-24T16:32:27.302Z,100069.69
2023-08-24T16:34:58.509Z,100056.97
2023-08-24T16:37:30.991Z,100050.84
2023-08-24T16:40:03.768Z,100053.66
2023-08-24T16:42:36.492Z,100041.75
2023-08-24T16:45:09.273Z,100023.25
2023-08-24T16:47:40.449Z,100011.34
2023-08-24T16:50:13.517Z,100007.59
2023-08-24T16:52:44.629Z,100003.56
2023-08-24T16:55:16.224Z,99983.97
2023-08-24T16:57:49.241Z,99992.53
2023-08-24T17:00:21.855Z,99993.34
2023-08-24T17:02:53.479Z,99990.16
2023-08-24T17:05:24.894Z,99991.03
2023-08-24T17:08:09.613Z,99979.28
2023-08-24T17:10:42.060Z,99977.19
2023-08-24T17:13:14.760Z,99957.19
2023-08-24T17:15:45.858Z,99957.63
2023-08-24T17:18:15.999Z,99901.53
2023-08-24T17:20:47.716Z,99936.00
2023-08-24T17:23:18.880Z,99925.44
2023-08-24T17:25:50.301Z,99932.00
2023-08-24T17:28:24.546Z,99923.41
2023-08-24T17:30:55.499Z,99922.19
2023-08-24T17:33:26.694Z,99924.66
2023-08-24T17:36:01.142Z,99930.38
2023-08-24T17:38:33.693Z,99917.25
2023-08-24T17:41:08.154Z,99911.97
2023-08-24T17:43:41.626Z,99904.63
2023-08-24T17:46:13.056Z,99892.28
2023-08-24T17:48:44.287Z,99903.78
2023-08-24T17:51:15.407Z,99899.72
2023-08-24T17:53:46.781Z,99889.94
2023-08-24T17:56:16.905Z,99863.69
2023-08-24T17:58:50.647Z,99895.19
2023-08-24T18:01:21.800Z,99893.97
2023-08-24T18:03:54.171Z,99904.13
2023-08-24T18:06:24.289Z,99931.06
2023-08-24T18:08:54.399Z,99935.91
2023-08-24T18:11:25.595Z,99941.22
2023-08-24T18:13:59.308Z,99926.19
2023-08-24T18:16:30.459Z,99924.53
2023-08-24T18:19:01.897Z,99930.66
2023-08-24T18:21:32.055Z,99926.63
2023-08-24T18:24:03.251Z,99930.69
2023-08-24T18:26:34.335Z,99927.00
2023-08-24T18:29:08.111Z,99924.13
2023-08-24T18:31:40.947Z,99924.47
2023-08-24T18:34:12.192Z,99937.44
2023-08-24T18:36:43.295Z,99934.56
2023-08-24T18:39:14.896Z,99943.50
2023-08-24T18:41:46.076Z,99936.50
2023-08-24T18:44:20.798Z,99930.81
2023-08-24T18:46:52.763Z,99926.28
2023-08-24T18:49:24.584Z,99931.91
2023-08-24T18:51:56.454Z,99923.31
2023-08-24T18:54:28.402Z,99915.56
2023-08-24T18:57:00.980Z,99913.03
2023-08-24T18:59:34.872Z,99919.13
2023-08-24T19:02:06.180Z,99920.69
2023-08-24T19:04:37.499Z,99917.41
2023-08-24T19:07:08.703Z,99917.72
2023-08-24T19:09:40.709Z,99918.84
2023-08-24T19:12:11.999Z,99926.13
2023-08-24T19:14:45.673Z,99915.81
2023-08-24T19:17:16.778Z,99910.88
2023-08-24T19:19:47.900Z,99902.25
2023-08-24T19:22:18.003Z,99897.31
2023-08-24T19:24:49.269Z,99890.81
2023-08-24T19:27:21.015Z,99882.66
2023-08-24T19:29:55.033Z,99880.13
2023-08-24T19:32:26.288Z,99873.97
2023-08-24T19:34:57.380Z,99880.91
2023-08-24T19:37:28.452Z,99865.44
2023-08-24T19:39:59.572Z,99857.31
2023-08-24T19:42:31.185Z,99857.31
2023-08-24T19:45:04.900Z,99872.69
2023-08-24T19:47:36.026Z,99870.19
2023-08-24T19:50:07.858Z,99871.78
2023-08-24T19:52:43.989Z,99874.63
2023-08-24T19:55:15.132Z,99877.09
2023-08-24T19:57:46.223Z,99876.72
2023-08-24T20:00:22.134Z,99876.72
2023-08-24T20:02:55.420Z,99872.59
2023-08-24T20:05:26.042Z,99879.13
2023-08-24T20:07:56.596Z,99881.91
2023-08-24T20:10:27.313Z,99874.56
2023-08-24T20:12:57.391Z,99867.16
2023-08-24T20:15:31.257Z,99864.66
2023-08-24T20:18:02.388Z,99866.25
2023-08-24T20:20:33.498Z,99851.47
2023-08-24T20:23:04.593Z,99869.84
2023-08-24T20:25:34.786Z,99862.81
2023-08-24T20:28:07.861Z,99843.63
2023-08-24T20:30:41.588Z,99862.06
2023-08-24T20:33:12.848Z,99859.59
2023-08-24T20:35:44.331Z,99865.28
2023-08-24T20:38:15.703Z,99866.09
2023-08-24T20:40:46.802Z,99869.72
2023-08-24T20:43:18.092Z,99867.19
2023-08-24T20:45:52.566Z,99868.81
2023-08-24T20:48:23.807Z,99872.88
2023-08-24T20:51:00.742Z,99875.31
2023-08-24T20:53:31.850Z,99873.22
2023-08-24T20:56:02.940Z,99873.16
2023-08-24T20:58:34.094Z,99869.56
2023-08-24T21:01:10.576Z,99863.91
2023-08-24T21:03:41.775Z,99864.72
2023-08-24T21:06:12.963Z,99878.13
2023-08-24T21:08:49.091Z,99870.31
2023-08-24T21:11:24.891Z,99869.44
2023-08-24T21:13:55.007Z,99872.66
2023-08-24T21:16:27.693Z,99866.06
2023-08-24T21:18:57.853Z,99857.91
2023-08-24T21:21:28.005Z,99866.00
2023-08-24T21:23:59.173Z,99873.72
2023-08-24T21:26:31.441Z,99882.69
2023-08-24T21:29:02.730Z,99886.72
2023-08-24T21:31:37.171Z,99889.53
2023-08-24T21:34:08.275Z,99896.41
2023-08-24T21:36:39.348Z,99901.59
2023-08-24T21:39:10.456Z,99897.50
2023-08-24T21:41:41.573Z,99905.22
2023-08-24T21:44:12.642Z,99909.63
2023-08-24T21:46:46.386Z,99914.50
2023-08-24T21:49:17.735Z,99920.56
2023-08-24T21:51:47.963Z,99919.69
2023-08-24T21:54:19.128Z,99924.50
2023-08-24T21:56:49.241Z,99932.19
2023-08-24T21:59:20.400Z,99928.09
2023-08-24T22:01:54.251Z,99943.56
2023-08-24T22:04:25.441Z,99937.94
2023-08-24T22:06:55.624Z,99937.56
2023-08-24T22:09:26.983Z,99937.94
2023-08-24T22:11:58.093Z,99933.13
2023-08-24T22:14:29.219Z,99929.84
2023-08-24T22:17:03.230Z,99919.19
2023-08-24T22:19:34.285Z,99930.94
2023-08-24T22:22:05.394Z,99937.84
2023-08-24T22:24:36.515Z,99932.16
2023-08-24T22:27:07.690Z,99926.06
2023-08-24T22:29:38.829Z,99933.84
2023-08-24T22:32:13.123Z,99929.03
2023-08-24T22:34:43.822Z,99910.00
2023-08-24T22:37:14.897Z,99906.78
2023-08-24T22:39:45.348Z,99911.59
2023-08-24T22:42:16.502Z,99910.84
2023-08-24T22:44:48.254Z,99915.75
2023-08-24T22:47:21.970Z,99914.19
2023-08-24T22:49:53.077Z,99895.19
2023-08-24T22:52:23.120Z,99887.41
2023-08-24T22:54:54.430Z,99886.22
2023-08-24T22:57:25.717Z,99882.97
2023-08-24T22:59:56.763Z,99875.97
2023-08-24T23:02:30.612Z,99878.94
2023-08-24T23:05:01.339Z,99892.78
2023-08-24T23:07:32.935Z,99894.44
2023-08-24T23:10:07.032Z,99880.66
2023-08-24T23:12:38.282Z,99866.44
2023-08-24T23:15:12.074Z,99873.41
2023-08-24T23:17:45.896Z,99859.13
2023-08-24T23:20:17.509Z,99858.28
2023-08-24T23:22:48.678Z,99857.09
2023-08-24T23:25:20.121Z,99850.56
2023-08-24T23:27:51.478Z,99857.44
2023-08-24T23:30:23.091Z,99860.31
2023-08-24T23:32:56.858Z,99854.25
2023-08-24T23:35:28.074Z,99861.19
2023-08-24T23:37:58.213Z,99878.19
2023-08-24T23:40:29.348Z,99855.31
2023-08-24T23:43:00.424Z,99858.97
2023-08-24T23:45:32.654Z,99854.81
2023-08-24T23:48:05.378Z,99863.72
2023-08-24T23:50:36.471Z,99857.66
2023-08-24T23:53:07.887Z,99848.56
2023-08-24T23:55:41.186Z,99840.34
2023-08-24T23:58:12.569Z,99831.78
